Аэропорт: Братск. Братск

ICAO: UIBB

METAR:
2021-01-19 12:00:00
UIBB 191200Z 24003MPS 9999 SCT030CB M16/M18 Q1006 R30/821040 NOSIG RMK QFE712/0949
METAR:
2021-01-19 11:00:00
TAF UIBB 191100Z 1912/2012 27006G11MPS 9999 DRSN BKN016CB TEMPO 1912/1918 1900 SHSN